Pagina principale
METAR-TAF:

METAR-TAF

Aeroporti :

Aeroporto di Cluj-Avram Iancu

Cluj-Napoca, Romania

latitudine: 46-47N, longitudine: 023-34E, altezza: 315 m

Osservazione

Il bollettino è stato emesso 32 minuti fa, alle 01:30 UTC
Vento calmo
Temperature 16°C
Umidità 88%
Pressione 1021 hPa
Visibilità 10 km o più
nessuna nube inferiore a 1500 m e nessun cumulonembo

METAR: LRCL 210130Z 00000KT CAVOK 16/14 Q1021

Ora: 05:02 (02:02 UTC)

Previsione

Il bollettino è stato emesso 3 ore e 2 minuti fa, alle 23:00 UTC
Previsione valida dal 21 alle 00 UTC al 21 alle 09 UTC
Vento 3 kt da direzioni variabili
Visibilità 10 km o più
nessuna nube inferiore a 1500 m e nessun cumulonembo

TAF: LRCL 202300Z 2100/2109 VRB03KT CAVOK

Osservazioni e previsioni meteorologiche di più di 4000 aeroporti (messaggi METAR e TAF).

Le stazioni disponibili sono rappresentate dai dischi gialli e rossi sulla carta.

Puntare il mouse per vedere il nome della stazione.

Clicca sopra per visualizzare le osservazioni e previsioni meteorologiche.

Per cambiare la mappa : fare clic sui pulsanti verdi con una croce nera per ingrandire, il pulsante verde con un trattino per diminuire, o sulla freccia verde per le mappe adiacenti.


METAR-TAF: